createdAt,value
2023-05-11T00:00:32.898Z,7.50
2023-05-11T00:03:02.972Z,9.63
2023-05-11T00:05:32.888Z,7.60
2023-05-11T00:08:02.729Z,9.13
2023-05-11T00:10:35.217Z,9.20
2023-05-11T00:13:05.067Z,9.40
2023-05-11T00:15:34.920Z,7.55
2023-05-11T00:18:04.781Z,9.85
2023-05-11T00:20:34.719Z,8.48
2023-05-11T00:23:04.636Z,8.50
2023-05-11T00:25:37.140Z,8.73
2023-05-11T00:28:07.846Z,9.50
2023-05-11T00:30:37.674Z,8.25
2023-05-11T00:33:07.682Z,11.05
2023-05-11T00:35:37.684Z,8.32
2023-05-11T00:38:07.467Z,8.25
2023-05-11T00:40:40.022Z,10.10
2023-05-11T00:43:09.909Z,10.48
2023-05-11T00:45:40.591Z,9.57
2023-05-11T00:48:10.513Z,11.57
2023-05-11T00:50:40.389Z,9.07
2023-05-11T00:53:11.694Z,9.15
2023-05-11T00:55:44.167Z,8.55
2023-05-11T00:58:14.045Z,9.85
2023-05-11T01:00:44.711Z,8.32
2023-05-11T01:05:49.003Z,7.60
2023-05-11T01:08:21.551Z,10.93
2023-05-11T01:11:11.584Z,8.73
2023-05-11T01:13:46.032Z,10.02
2023-05-11T01:16:24.614Z,8.70
2023-05-11T01:19:04.336Z,7.30
2023-05-11T01:21:37.085Z,7.63
2023-05-11T01:24:26.780Z,8.88
2023-05-11T01:27:10.302Z,8.73
2023-05-11T01:29:48.471Z,10.57
2023-05-11T01:32:23.387Z,8.73
2023-05-11T01:34:58.948Z,8.50
2023-05-11T01:37:29.728Z,8.18
2023-05-11T01:40:03.427Z,8.30
2023-05-11T01:42:38.845Z,10.95
2023-05-11T01:45:10.392Z,8.23
2023-05-11T01:47:44.070Z,11.23
2023-05-11T01:50:14.661Z,8.77
2023-05-11T01:52:46.258Z,10.30
2023-05-11T01:55:17.681Z,8.73
2023-05-11T01:57:48.382Z,9.05
2023-05-11T02:00:20.298Z,10.48
2023-05-11T02:02:53.761Z,10.07
2023-05-11T02:05:26.257Z,9.43
2023-05-11T02:07:57.612Z,9.85
2023-05-11T02:10:28.846Z,9.90
2023-05-11T02:12:59.650Z,10.82
2023-05-11T02:18:02.386Z,10.88
2023-05-11T02:20:32.802Z,12.13
2023-05-11T02:23:03.750Z,11.05
2023-05-11T02:25:34.153Z,10.52
2023-05-11T02:28:04.164Z,11.27
2023-05-11T02:30:41.781Z,10.88
2023-05-11T02:33:17.558Z,11.32
2023-05-11T02:35:47.671Z,10.95
2023-05-11T02:38:18.696Z,11.70
2023-05-11T02:40:51.171Z,9.20
2023-05-11T02:43:27.643Z,10.57
2023-05-11T02:46:05.382Z,10.07
2023-05-11T02:48:42.780Z,10.90
2023-05-11T02:51:14.659Z,11.38
2023-05-11T02:53:50.074Z,10.02
2023-05-11T02:56:20.179Z,10.85
2023-05-11T02:58:50.348Z,11.57
2023-05-11T03:01:26.351Z,12.15
2023-05-11T03:04:00.237Z,12.18
2023-05-11T03:06:33.443Z,10.15
2023-05-11T03:09:05.608Z,11.23
2023-05-11T03:11:39.115Z,10.95
2023-05-11T03:14:09.640Z,12.65
2023-05-11T03:16:40.536Z,14.80
2023-05-11T03:19:13.423Z,12.48
2023-05-11T03:21:43.579Z,14.52
2023-05-11T03:24:13.504Z,14.07
2023-05-11T03:26:44.609Z,17.50
2023-05-11T03:29:15.122Z,15.52
2023-05-11T03:31:45.180Z,17.08
2023-05-11T03:34:17.939Z,13.57
2023-05-11T03:36:51.593Z,16.17
2023-05-11T03:39:23.513Z,15.95
2023-05-11T03:41:54.288Z,17.08
2023-05-11T03:46:56.443Z,14.18
2023-05-11T03:49:29.475Z,23.80
2023-05-11T03:52:00.312Z,15.68
2023-05-11T03:54:30.414Z,15.68
2023-05-11T03:57:00.869Z,15.85
2023-05-11T03:59:30.982Z,19.13
2023-05-11T04:02:01.755Z,20.85
2023-05-11T04:04:35.263Z,19.83
2023-05-11T04:07:05.577Z,16.65
2023-05-11T04:09:35.968Z,23.42
2023-05-11T04:12:06.326Z,19.30
2023-05-11T04:14:36.430Z,19.67
2023-05-11T04:17:06.485Z,20.38
2023-05-11T04:19:39.127Z,24.42
2023-05-11T04:22:09.194Z,24.40
2023-05-11T04:24:40.045Z,21.40
2023-05-11T04:27:11.142Z,24.90
2023-05-11T04:29:41.119Z,20.83
2023-05-11T04:32:11.188Z,23.83
2023-05-11T04:34:43.840Z,30.50
2023-05-11T04:37:14.285Z,19.85
2023-05-11T04:39:45.349Z,23.77
2023-05-11T04:42:15.519Z,22.40
2023-05-11T04:44:47.450Z,21.98
2023-05-11T04:47:20.391Z,22.58
2023-05-11T04:49:53.207Z,19.77
2023-05-11T04:52:23.666Z,18.80
2023-05-11T04:54:54.156Z,19.25
2023-05-11T04:57:24.165Z,23.45
2023-05-11T04:59:54.564Z,20.45
2023-05-11T05:02:24.757Z,20.63
2023-05-11T05:04:57.807Z,21.25
2023-05-11T05:07:28.032Z,16.13
2023-05-11T05:09:59.485Z,17.70
2023-05-11T05:12:29.680Z,20.83
2023-05-11T05:14:59.989Z,20.33
2023-05-11T05:17:29.939Z,20.10
2023-05-11T05:20:04.674Z,18.90
2023-05-11T05:22:34.911Z,20.20
2023-05-11T05:25:05.962Z,19.50
2023-05-11T05:27:36.099Z,22.27
2023-05-11T05:30:10.982Z,18.60
2023-05-11T05:32:41.069Z,16.13
2023-05-11T05:35:14.032Z,19.90
2023-05-11T05:37:45.768Z,20.17
2023-05-11T05:40:16.258Z,21.45
2023-05-11T05:42:51.093Z,17.63
2023-05-11T05:45:24.785Z,19.83
2023-05-11T05:47:55.036Z,15.82
2023-05-11T05:50:29.084Z,17.00
2023-05-11T05:53:00.109Z,15.55
2023-05-11T05:55:32.105Z,16.92
2023-05-11T05:58:04.795Z,17.73
2023-05-11T06:00:34.959Z,17.48
2023-05-11T06:03:08.694Z,15.70
2023-05-11T06:05:41.996Z,19.50
2023-05-11T06:08:12.107Z,19.45
2023-05-11T06:13:13.870Z,18.10
2023-05-11T06:15:45.711Z,13.98
2023-05-11T06:18:23.470Z,22.20
2023-05-11T06:20:56.310Z,23.30
2023-05-11T06:23:29.280Z,20.52
2023-05-11T06:25:59.423Z,15.23
2023-05-11T06:28:31.409Z,15.77
2023-05-11T06:31:04.935Z,19.58
2023-05-11T06:33:38.755Z,17.48
2023-05-11T06:36:16.749Z,16.40
2023-05-11T06:38:48.342Z,17.55
2023-05-11T06:41:18.882Z,16.52
2023-05-11T06:43:55.599Z,16.63
2023-05-11T06:46:39.209Z,13.73
2023-05-11T06:49:10.962Z,19.70
2023-05-11T06:51:43.613Z,20.05
2023-05-11T06:54:13.818Z,18.83
2023-05-11T06:56:43.715Z,18.85
2023-05-11T06:59:14.378Z,19.17
2023-05-11T07:01:44.494Z,17.08
2023-05-11T07:04:14.538Z,19.80
2023-05-11T07:06:47.316Z,16.70
2023-05-11T07:09:17.720Z,19.65
2023-05-11T07:11:47.852Z,20.38
2023-05-11T07:14:18.038Z,19.02
2023-05-11T07:16:48.313Z,21.88
2023-05-11T07:19:18.585Z,18.20
2023-05-11T07:21:52.644Z,17.27
2023-05-11T07:24:23.200Z,17.60
2023-05-11T07:26:53.426Z,19.70
2023-05-11T07:29:23.627Z,18.75
2023-05-11T07:31:53.850Z,18.90
2023-05-11T07:34:24.552Z,20.80
2023-05-11T07:36:57.288Z,22.17
2023-05-11T07:39:27.383Z,19.00
2023-05-11T07:41:57.539Z,19.23
2023-05-11T07:44:27.884Z,20.40
2023-05-11T07:46:58.754Z,22.75
2023-05-11T07:52:16.393Z,18.65
2023-05-11T07:54:47.146Z,19.20
2023-05-11T07:57:17.931Z,20.45
2023-05-11T07:59:48.366Z,21.10
2023-05-11T08:02:19.299Z,21.83
2023-05-11T08:07:22.407Z,20.73
2023-05-11T08:09:53.072Z,20.58
2023-05-11T08:12:23.455Z,21.67
2023-05-11T08:14:53.685Z,23.73
2023-05-11T08:17:23.922Z,21.95
2023-05-11T08:19:54.417Z,17.35
2023-05-11T08:22:29.135Z,16.63
2023-05-11T08:24:59.585Z,17.42
2023-05-11T08:27:30.072Z,16.20
2023-05-11T08:30:00.377Z,16.85
2023-05-11T08:32:30.866Z,16.95
2023-05-11T08:35:01.845Z,19.83
2023-05-11T08:37:34.951Z,14.93
2023-05-11T08:40:05.884Z,17.83
2023-05-11T08:42:38.966Z,17.13
2023-05-11T08:45:13.833Z,16.30
2023-05-11T08:47:45.488Z,13.90
2023-05-11T08:50:22.645Z,15.80
2023-05-11T08:52:56.244Z,15.57
2023-05-11T08:55:30.031Z,15.25
2023-05-11T08:58:01.638Z,13.93
2023-05-11T09:00:32.832Z,11.68
2023-05-11T09:03:03.718Z,13.35
2023-05-11T09:05:34.719Z,11.90
2023-05-11T09:08:09.632Z,14.75
2023-05-11T09:10:39.987Z,13.90
2023-05-11T09:13:10.432Z,12.60
2023-05-11T09:15:40.798Z,14.75
2023-05-11T09:18:11.099Z,17.83
2023-05-11T09:20:47.485Z,19.15
2023-05-11T09:23:22.709Z,14.57
2023-05-11T09:25:53.154Z,14.80
2023-05-11T09:28:25.482Z,15.63
2023-05-11T09:30:59.139Z,15.50
2023-05-11T09:33:29.579Z,15.38
2023-05-11T09:36:00.449Z,15.82
2023-05-11T09:41:05.124Z,11.85
2023-05-11T09:43:35.743Z,17.92
2023-05-11T09:48:38.719Z,14.50
2023-05-11T09:51:11.131Z,14.88
2023-05-11T09:53:46.333Z,16.10
2023-05-11T09:56:16.847Z,18.08
2023-05-11T09:58:51.387Z,16.17
2023-05-11T10:01:22.630Z,19.25
2023-05-11T10:04:02.560Z,16.85
2023-05-11T10:06:46.862Z,20.75
2023-05-11T10:09:20.075Z,19.52
2023-05-11T10:11:49.824Z,17.40
2023-05-11T10:14:19.736Z,19.05
2023-05-11T10:16:50.189Z,20.20
2023-05-11T10:19:20.275Z,16.30
2023-05-11T10:21:50.139Z,16.80
2023-05-11T10:24:22.493Z,15.15
2023-05-11T10:26:52.981Z,15.55
2023-05-11T10:29:22.815Z,16.02
2023-05-11T10:31:55.271Z,14.05
2023-05-11T10:34:25.767Z,13.43
2023-05-11T10:36:56.878Z,14.07
2023-05-11T10:39:29.627Z,16.73
2023-05-11T10:42:09.995Z,12.32
2023-05-11T10:45:04.335Z,13.23
2023-05-11T10:48:18.391Z,12.55
2023-05-11T10:51:00.970Z,13.23
2023-05-11T10:53:51.587Z,14.75
2023-05-11T10:56:44.631Z,14.32
2023-05-11T10:59:40.346Z,11.85
2023-05-11T11:05:51.598Z,12.95
2023-05-11T11:08:23.254Z,13.40
2023-05-11T11:10:53.100Z,12.70
2023-05-11T11:13:25.554Z,17.05
2023-05-11T11:16:16.338Z,13.93
2023-05-11T11:18:47.729Z,11.18
2023-05-11T11:21:43.572Z,13.27
2023-05-11T11:24:48.598Z,15.07
2023-05-11T11:27:57.476Z,12.55
2023-05-11T11:30:49.693Z,11.52
2023-05-11T11:33:35.581Z,12.32
2023-05-11T11:36:19.905Z,12.05
2023-05-11T11:39:04.058Z,12.63
2023-05-11T11:41:42.430Z,10.93
2023-05-11T11:44:23.690Z,9.68
2023-05-11T11:47:13.480Z,11.18
2023-05-11T11:49:46.220Z,12.27
2023-05-11T11:52:36.285Z,10.43
2023-05-11T11:55:11.012Z,13.20
2023-05-11T11:57:54.868Z,11.25
2023-05-11T12:00:26.902Z,9.55
2023-05-11T12:02:59.480Z,8.27
2023-05-11T12:05:36.891Z,8.18
2023-05-11T12:08:09.310Z,6.93
2023-05-11T12:10:48.500Z,7.22
2023-05-11T12:13:21.069Z,7.28
2023-05-11T12:16:16.782Z,8.18
2023-05-11T12:19:00.745Z,8.35
2023-05-11T12:21:32.772Z,10.07
2023-05-11T12:24:04.650Z,8.88
2023-05-11T12:26:35.927Z,9.52
2023-05-11T12:29:15.495Z,8.20
2023-05-11T12:31:46.431Z,7.82
2023-05-11T12:34:18.239Z,8.35
2023-05-11T12:36:48.691Z,9.40
2023-05-11T12:39:22.326Z,8.85
2023-05-11T12:41:53.553Z,10.82
2023-05-11T12:44:26.984Z,7.88
2023-05-11T12:46:57.603Z,12.40
2023-05-11T12:49:28.050Z,8.95
2023-05-11T12:52:09.421Z,10.43
2023-05-11T12:54:41.201Z,9.80
2023-05-11T12:57:12.325Z,10.52
2023-05-11T12:59:44.733Z,9.68
2023-05-11T13:02:22.736Z,11.77
2023-05-11T13:05:19.861Z,8.80
2023-05-11T13:07:50.043Z,10.73
2023-05-11T13:10:20.098Z,9.43
2023-05-11T13:12:54.188Z,8.88
2023-05-11T13:15:28.847Z,11.82
2023-05-11T13:17:59.916Z,9.18
2023-05-11T13:20:30.959Z,9.60
2023-05-11T13:23:08.878Z,10.77
2023-05-11T13:25:54.463Z,9.18
2023-05-11T13:28:26.619Z,11.63
2023-05-11T13:31:04.005Z,11.43
2023-05-11T13:33:33.763Z,11.27
2023-05-11T13:36:04.864Z,10.63
2023-05-11T13:38:34.739Z,9.55
2023-05-11T13:41:06.306Z,9.88
2023-05-11T13:43:36.369Z,8.73
2023-05-11T13:46:08.912Z,9.82
2023-05-11T13:48:38.690Z,13.43
2023-05-11T13:51:08.484Z,10.57
2023-05-11T13:53:38.262Z,9.75
2023-05-11T13:56:08.819Z,10.52
2023-05-11T13:58:38.638Z,8.90
2023-05-11T14:01:11.307Z,10.60
2023-05-11T14:03:42.342Z,9.30
2023-05-11T14:06:12.163Z,9.32
2023-05-11T14:08:42.042Z,10.52
2023-05-11T14:11:11.914Z,11.70
2023-05-11T14:13:41.789Z,12.77
2023-05-11T14:16:14.182Z,10.10
2023-05-11T14:18:44.534Z,10.15
2023-05-11T14:21:14.583Z,11.30
2023-05-11T14:23:57.749Z,10.93
2023-05-11T14:26:32.103Z,10.23
2023-05-11T14:29:01.830Z,12.57
2023-05-11T14:31:34.738Z,10.45
2023-05-11T14:34:05.389Z,10.90
2023-05-11T14:39:04.717Z,13.85
2023-05-11T14:41:34.545Z,12.93
2023-05-11T14:44:04.323Z,15.10
2023-05-11T14:46:36.783Z,13.30
2023-05-11T14:49:16.970Z,11.70
2023-05-11T14:51:47.849Z,12.40
2023-05-11T14:54:18.715Z,11.50
2023-05-11T14:56:56.622Z,10.95
2023-05-11T14:59:51.325Z,12.05
2023-05-11T15:02:42.041Z,14.32
2023-05-11T15:08:28.435Z,11.07
2023-05-11T15:11:09.041Z,11.60
2023-05-11T15:13:42.102Z,13.48
2023-05-11T15:16:14.417Z,12.25
2023-05-11T15:18:57.181Z,11.73
2023-05-11T15:21:49.880Z,11.50
2023-05-11T15:24:23.575Z,12.73
2023-05-11T15:27:01.036Z,11.55
2023-05-11T15:29:48.904Z,15.82
2023-05-11T15:32:28.727Z,10.52
2023-05-11T15:35:03.313Z,14.88
2023-05-11T15:37:37.139Z,14.55
2023-05-11T15:40:19.711Z,13.70
2023-05-11T15:42:57.844Z,13.70
2023-05-11T17:32:04.621Z,12.63
2023-05-11T17:34:34.986Z,10.55
2023-05-11T17:37:05.167Z,12.25
2023-05-11T17:39:35.473Z,9.77
2023-05-11T17:42:05.970Z,10.05
2023-05-11T17:44:36.786Z,11.52
2023-05-11T17:47:09.805Z,9.75
2023-05-11T17:49:40.055Z,12.55
2023-05-11T17:52:10.475Z,11.73
2023-05-11T17:54:40.734Z,11.18
2023-05-11T17:57:10.888Z,11.27
2023-05-11T17:59:41.514Z,10.45
2023-05-11T18:02:15.268Z,10.35
2023-05-11T18:04:48.659Z,14.50
2023-05-11T18:07:19.005Z,11.18
2023-05-11T18:09:49.404Z,12.02
2023-05-11T18:12:19.803Z,14.70
2023-05-11T18:14:50.436Z,10.40
2023-05-11T18:19:53.169Z,11.30
2023-05-11T18:22:23.347Z,14.15
2023-05-11T18:24:53.773Z,18.65
2023-05-11T18:27:23.985Z,10.93
2023-05-11T18:29:54.477Z,14.07
2023-05-11T18:32:27.287Z,11.73
2023-05-11T18:34:57.516Z,12.80
2023-05-11T18:37:27.650Z,11.88
2023-05-11T18:39:57.848Z,12.60
2023-05-11T18:42:28.143Z,12.77
2023-05-11T18:44:58.192Z,13.00
2023-05-11T18:47:30.886Z,14.70
2023-05-11T18:50:01.348Z,12.48
2023-05-11T18:52:31.511Z,12.95
2023-05-11T18:55:01.345Z,13.02
2023-05-11T18:57:34.154Z,12.85
2023-05-11T19:00:03.978Z,13.05
2023-05-11T19:02:36.720Z,17.38
2023-05-11T19:05:07.217Z,16.92
2023-05-11T19:07:37.060Z,13.93
2023-05-11T19:10:08.319Z,14.32
2023-05-11T19:12:38.356Z,12.23
2023-05-11T19:15:10.151Z,8.95
2023-05-11T19:17:42.903Z,10.20
2023-05-11T19:20:13.743Z,16.20
2023-05-11T19:22:43.783Z,9.93
2023-05-11T19:25:14.025Z,12.20
2023-05-11T19:27:45.491Z,13.60
2023-05-11T19:30:15.760Z,11.75
2023-05-11T19:32:49.087Z,14.40
2023-05-11T19:35:19.392Z,11.30
2023-05-11T19:37:50.708Z,9.65
2023-05-11T19:42:55.806Z,10.77
2023-05-11T19:45:26.047Z,10.68
2023-05-11T19:47:58.607Z,12.07
2023-05-11T19:50:28.785Z,10.85
2023-05-11T19:52:58.962Z,14.32
2023-05-11T19:55:29.778Z,14.35
2023-05-11T19:58:00.277Z,15.13
2023-05-11T20:00:30.501Z,12.10
2023-05-11T20:03:03.796Z,14.20
2023-05-11T20:05:33.922Z,10.75
2023-05-11T20:08:06.191Z,11.38
2023-05-11T20:10:36.681Z,10.70
2023-05-11T20:13:08.418Z,9.73
2023-05-11T20:15:38.675Z,11.32
2023-05-11T20:18:11.958Z,9.40
2023-05-11T20:20:42.126Z,14.85
2023-05-11T20:23:12.228Z,9.80
2023-05-11T20:25:44.361Z,8.23
2023-05-11T20:28:14.700Z,10.10
2023-05-11T20:30:44.894Z,10.13
2023-05-11T20:35:53.068Z,9.82
2023-05-11T20:38:23.735Z,6.68
2023-05-11T20:40:58.353Z,8.20
2023-05-11T20:43:29.644Z,7.25
2023-05-11T20:46:04.913Z,6.75
2023-05-11T20:48:40.693Z,10.15
2023-05-11T20:51:11.801Z,10.27
2023-05-11T20:53:41.825Z,9.35
2023-05-11T20:56:12.975Z,7.68
2023-05-11T20:58:43.007Z,8.88
2023-05-11T21:01:13.692Z,10.07
2023-05-11T21:06:16.432Z,9.65
2023-05-11T21:08:46.707Z,8.38
2023-05-11T21:11:17.078Z,7.55
2023-05-11T21:13:47.199Z,9.45
2023-05-11T21:16:17.431Z,11.57
2023-05-11T21:18:50.144Z,10.73
2023-05-11T21:21:20.197Z,10.18
2023-05-11T21:23:50.275Z,11.13
2023-05-11T21:26:21.141Z,9.63
2023-05-11T21:28:51.255Z,10.60
2023-05-11T21:31:21.481Z,10.88
2023-05-11T21:33:54.878Z,11.60
2023-05-11T21:36:25.216Z,10.07
2023-05-11T21:38:55.263Z,10.80
2023-05-11T21:41:25.545Z,10.63
2023-05-11T21:43:55.506Z,12.70
2023-05-11T21:46:25.706Z,9.23
2023-05-11T21:48:58.454Z,10.82
2023-05-11T21:51:28.381Z,9.25
2023-05-11T21:53:58.544Z,11.38
2023-05-11T21:56:28.752Z,9.23
2023-05-11T21:59:01.293Z,9.63
2023-05-11T22:01:31.516Z,12.98
2023-05-11T22:04:04.559Z,13.52
2023-05-11T22:06:34.714Z,12.50
2023-05-11T22:09:04.928Z,11.27
2023-05-11T22:11:36.337Z,9.05
2023-05-11T22:14:06.699Z,11.00
2023-05-11T22:16:37.001Z,9.18
2023-05-11T22:19:10.043Z,59.90
2023-05-11T22:21:40.368Z,8.50
2023-05-11T22:24:11.173Z,9.85
2023-05-11T22:26:41.349Z,9.70
2023-05-11T22:29:11.467Z,8.88
2023-05-11T22:31:43.386Z,8.32
2023-05-11T22:34:17.686Z,9.38
2023-05-11T22:36:47.812Z,13.75
2023-05-11T22:39:19.234Z,7.82
2023-05-11T22:41:57.042Z,8.20
2023-05-11T22:44:27.469Z,7.40
2023-05-11T22:47:03.494Z,16.63
2023-05-11T22:49:36.549Z,10.35
2023-05-11T22:52:08.332Z,12.13
2023-05-11T22:54:38.754Z,8.70
2023-05-11T22:57:09.574Z,12.23
2023-05-11T22:59:39.727Z,10.43
2023-05-11T23:02:09.802Z,10.45
2023-05-11T23:04:42.623Z,11.38
2023-05-11T23:07:13.113Z,10.75
2023-05-11T23:09:43.333Z,11.10
2023-05-11T23:12:13.612Z,9.38
2023-05-11T23:14:43.948Z,12.60
2023-05-11T23:17:16.860Z,13.13
2023-05-11T23:19:49.897Z,11.85
2023-05-11T23:22:20.030Z,11.52
2023-05-11T23:24:50.145Z,10.25
2023-05-11T23:27:23.450Z,14.55
2023-05-11T23:29:57.287Z,12.00
2023-05-11T23:32:27.015Z,12.20
2023-05-11T23:34:59.360Z,11.68
2023-05-11T23:37:29.080Z,13.57
2023-05-11T23:39:58.805Z,12.18
2023-05-11T23:42:28.546Z,12.52
2023-05-11T23:45:00.215Z,12.57
2023-05-11T23:47:29.993Z,11.95
2023-05-11T23:50:02.545Z,13.32
2023-05-11T23:52:32.571Z,12.25
2023-05-11T23:55:02.242Z,14.98
2023-05-11T23:57:31.950Z,11.27
